Time;durP1;ratioP1;P1;durP2;ratioP2;P2;SDS_P1;SDS_P2;PMS_P1;PMS_P2;Temp;Humidity;BMP_temperature;BMP_pressure;BME280_temperature;BME280_humidity;BME280_pressure;Samples;Min_cycle;Max_cycle;Signal;HPM_P1;HPM_P2
2022/02/10 00:06:15;;;;;;;4.10;1.43;;;6.00;96.30;;;;;;5033315;28;20767;-76
2022/02/10 00:14:35;;;;;;;93.53;36.57;;;6.10;96.30;;;;;;5033325;28;21008;-78
2022/02/10 00:20:05;;;;;;;26.27;11.70;;;6.00;96.30;;;;;;5033540;28;20393;-76
2022/02/10 00:23:03;;;;;;;7.23;3.07;;;5.90;96.30;;;;;;5032633;28;20442;-76
2022/02/10 00:36:12;;;;;;;1.20;0.90;;;5.70;96.30;;;;;;5032697;28;20960;-76
2022/02/10 00:38:44;;;;;;;2.80;1.23;;;5.70;96.30;;;;;;5015102;28;20416;-76
2022/02/10 00:41:09;;;;;;;1.53;1.17;;;5.60;96.30;;;;;;5032861;28;20398;-76
2022/02/10 00:43:35;;;;;;;7.50;3.17;;;5.60;96.30;;;;;;5032691;28;20442;-76
2022/02/10 00:46:00;;;;;;;3.70;2.77;;;5.60;96.30;;;;;;5014775;28;20175;-76
2022/02/10 00:48:26;;;;;;;2.80;1.40;;;5.70;96.30;;;;;;5032683;28;20829;-76
2022/02/10 00:50:52;;;;;;;3.30;1.60;;;5.70;96.30;;;;;;5015266;28;20176;-76
2022/02/10 00:53:23;;;;;;;1.33;1.10;;;5.80;96.30;;;;;;5032503;28;20282;-76
2022/02/10 00:55:49;;;;;;;10.83;7.50;;;5.80;96.30;;;;;;5032389;28;20478;-78
2022/02/10 00:58:23;;;;;;;5.93;2.20;;;5.90;96.30;;;;;;5032574;28;20502;-76
2022/02/10 05:08:17;;;;;;;2.83;2.10;;;5.10;96.30;;;;;;5032032;28;20540;-76
2022/02/10 05:16:07;;;;;;;3.00;2.53;;;5.10;96.30;;;;;;5034928;28;20403;-75
2022/02/10 05:18:45;;;;;;;21.87;13.93;;;5.00;96.30;;;;;;5043573;28;20259;-76
2022/02/10 06:51:37;;;;;;;3.67;2.97;;;6.00;96.30;;;;;;5034169;28;20445;-75
2022/02/10 06:54:17;;;;;;;4.90;2.97;;;5.90;96.30;;;;;;5033191;28;20462;-76
2022/02/10 06:57:50;;;;;;;3.43;2.70;;;6.30;96.30;;;;;;5034135;28;20430;-76
2022/02/10 07:08:05;;;;;;;5.37;3.10;;;7.10;96.30;;;;;;5014551;28;20475;-76
2022/02/10 07:10:46;;;;;;;5.27;3.37;;;7.20;96.30;;;;;;5029484;28;20951;-76
2022/02/10 07:53:37;;;;;;;1.87;1.77;;;6.50;96.30;;;;;;5024160;28;20457;-75
2022/02/10 07:58:59;;;;;;;2.57;2.17;;;6.50;96.30;;;;;;5018613;28;20412;-76
2022/02/10 08:26:38;;;;;;;6.50;2.67;;;6.80;96.30;;;;;;5033368;28;20779;-74
2022/02/10 08:55:58;;;;;;;4.00;2.50;;;7.10;96.30;;;;;;5022947;28;20466;-76
2022/02/10 08:59:48;;;;;;;5.10;2.47;;;7.10;96.30;;;;;;5024416;28;20484;-75
2022/02/10 09:06:27;;;;;;;3.73;1.90;;;7.60;96.30;;;;;;5031425;28;20434;-76
2022/02/10 09:23:09;;;;;;;2.60;1.63;;;8.20;96.30;;;;;;5032399;28;20202;-75
2022/02/10 09:55:16;;;;;;;4.57;1.50;;;8.30;96.30;;;;;;5034938;28;20452;-75
2022/02/10 10:00:21;;;;;;;2.40;1.40;;;8.40;96.30;;;;;;5035134;28;20873;-75
2022/02/10 10:02:55;;;;;;;1.97;1.40;;;8.50;96.30;;;;;;5034295;28;20251;-76
2022/02/10 10:08:35;;;;;;;3.23;1.63;;;8.70;96.30;;;;;;5012711;28;20411;-75
2022/02/10 10:14:22;;;;;;;2.03;1.43;;;8.90;96.30;;;;;;5015919;28;20454;-74
2022/02/10 10:17:15;;;;;;;4.23;1.77;;;9.20;96.30;;;;;;5015563;28;20400;-75
2022/02/10 10:20:01;;;;;;;4.10;1.73;;;9.20;96.30;;;;;;5015577;28;20412;-76
2022/02/10 10:22:53;;;;;;;3.67;1.40;;;9.40;96.30;;;;;;5015585;28;20502;-76
2022/02/10 10:53:43;;;;;;;4.50;1.80;;;9.00;96.30;;;;;;5035097;28;20494;-75
2022/02/10 10:56:14;;;;;;;2.70;1.90;;;9.40;96.30;;;;;;5034309;28;20435;-75
2022/02/10 11:05:29;;;;;;;7.83;2.57;;;9.50;96.30;;;;;;5034992;28;20461;-76
2022/02/10 11:07:51;;;;;;;9.07;2.70;;;9.30;96.30;;;;;;5033560;28;20797;-75
2022/02/10 11:36:24;;;;;;;7.97;3.90;;;8.20;96.30;;;;;;5034092;28;20498;-76
2022/02/10 12:34:30;;;;;;;8.20;4.00;;;7.20;96.30;;;;;;5067143;28;20423;-77
2022/02/10 13:48:43;;;;;;;6.77;5.27;;;5.50;96.30;;;;;;5055934;28;20408;-76
2022/02/10 14:12:54;;;;;;;9.97;6.37;;;5.10;96.30;;;;;;5071617;28;20506;-78
2022/02/10 14:23:17;;;;;;;10.40;6.30;;;5.10;96.30;;;;;;5057870;28;20213;-78
2022/02/10 14:25:57;;;;;;;13.40;6.50;;;5.20;96.30;;;;;;5065330;28;20779;-78
2022/02/10 14:28:24;;;;;;;14.63;7.47;;;5.20;96.30;;;;;;5071545;28;20476;-77
2022/02/10 14:30:50;;;;;;;7.97;5.70;;;5.20;96.30;;;;;;5048422;28;20507;-77
2022/02/10 14:33:23;;;;;;;11.17;5.87;;;5.20;96.30;;;;;;5033726;28;20982;-76
2022/02/10 14:41:51;;;;;;;15.67;7.47;;;5.30;96.30;;;;;;5069874;28;20431;-76
2022/02/10 15:28:52;;;;;;;12.60;6.80;;;5.10;96.30;;;;;;4993073;28;20193;-78
2022/02/10 15:31:48;;;;;;;12.83;7.97;;;5.10;96.30;;;;;;5074470;28;20493;-77
2022/02/10 15:47:17;;;;;;;14.43;8.03;;;5.10;96.30;;;;;;5073709;28;20467;-77
2022/02/10 15:49:30;;;;;;;15.17;8.50;;;5.10;96.30;;;;;;5073793;28;20413;-77
2022/02/10 15:52:12;;;;;;;13.20;7.53;;;5.10;96.30;;;;;;5062776;28;20842;-76
2022/02/10 16:14:22;;;;;;;17.53;7.90;;;5.00;96.30;;;;;;5053152;28;20440;-77
2022/02/10 16:16:47;;;;;;;10.87;8.00;;;4.90;96.30;;;;;;5052443;28;21256;-77
2022/02/10 16:18:49;;;;;;;12.60;8.00;;;4.90;96.30;;;;;;5072442;28;20770;-77
2022/02/10 16:21:26;;;;;;;10.87;7.33;;;4.90;96.30;;;;;;5053372;28;20491;-77
2022/02/10 16:23:59;;;;;;;15.17;8.10;;;4.80;96.30;;;;;;5042504;28;20847;-78
2022/02/10 16:26:34;;;;;;;9.80;7.10;;;4.80;96.30;;;;;;5071899;28;20859;-77
2022/02/10 16:29:01;;;;;;;9.00;6.50;;;4.80;96.30;;;;;;5073006;28;20834;-77
2022/02/10 16:31:27;;;;;;;8.70;6.37;;;4.70;96.30;;;;;;5062949;28;20728;-77
2022/02/10 16:33:54;;;;;;;10.50;6.90;;;4.70;96.30;;;;;;5035077;28;20859;-77
2022/02/10 16:36:22;;;;;;;13.90;7.33;;;4.80;96.30;;;;;;5052735;28;20703;-77
2022/02/10 16:38:47;;;;;;;10.20;7.37;;;4.70;96.30;;;;;;5054205;28;20414;-77
2022/02/10 16:41:14;;;;;;;11.23;7.80;;;4.70;96.30;;;;;;5054820;28;20550;-77
2022/02/10 16:43:41;;;;;;;11.47;7.70;;;4.70;96.30;;;;;;5053466;28;20171;-77
2022/02/10 16:46:09;;;;;;;13.90;8.20;;;4.70;96.30;;;;;;5054779;28;20970;-77
2022/02/10 16:48:36;;;;;;;16.93;8.47;;;4.70;96.30;;;;;;5072657;28;20451;-77
2022/02/10 16:51:02;;;;;;;11.17;8.10;;;4.60;96.30;;;;;;5072648;28;20425;-77
2022/02/10 16:53:29;;;;;;;11.97;8.63;;;4.60;96.30;;;;;;5072518;28;20477;-77
2022/02/10 16:56:04;;;;;;;12.47;8.47;;;4.60;96.30;;;;;;5054301;28;20251;-77
2022/02/10 17:17:36;;;;;;;19.40;9.90;;;4.50;96.30;;;;;;5072506;28;20452;-78
2022/02/10 17:25:21;;;;;;;11.37;8.83;;;4.40;96.30;;;;;;5053162;28;20418;-79
2022/02/10 17:27:54;;;;;;;16.67;9.20;;;4.40;96.30;;;;;;5052545;28;20179;-78
2022/02/10 17:30:51;;;;;;;14.97;9.30;;;4.40;96.30;;;;;;5050268;28;20405;-77
2022/02/10 17:33:19;;;;;;;15.00;8.90;;;4.40;96.30;;;;;;5071512;28;20425;-77
2022/02/10 17:36:03;;;;;;;12.03;8.30;;;4.50;96.30;;;;;;5072795;28;20453;-79
2022/02/10 19:38:21;;;;;;;13.63;8.50;;;4.60;96.30;;;;;;5446907;23;20490;-75
2022/02/10 19:40:52;;;;;;;10.10;8.00;;;4.60;96.30;;;;;;5058421;28;20429;-79
2022/02/10 19:43:19;;;;;;;10.23;7.87;;;4.60;96.30;;;;;;5073666;28;20504;-76
2022/02/10 19:45:47;;;;;;;11.30;7.03;;;4.50;96.30;;;;;;5055862;28;20579;-77
2022/02/10 19:48:13;;;;;;;13.60;8.50;;;4.60;96.30;;;;;;5073958;28;20413;-76
2022/02/10 19:50:39;;;;;;;10.17;8.47;;;;;;;;;;5073779;28;20874;-78
2022/02/10 19:53:08;;;;;;;13.63;8.90;;;4.50;96.30;;;;;;5073838;28;20496;-75
2022/02/10 19:55:37;;;;;;;11.67;8.43;;;4.50;96.30;;;;;;5068319;28;20245;-73
2022/02/10 19:58:09;;;;;;;11.80;8.10;;;4.50;96.30;;;;;;5035950;28;20418;-75
2022/02/10 20:00:41;;;;;;;11.93;8.17;;;4.50;96.30;;;;;;5070078;28;20418;-75
2022/02/10 20:03:18;;;;;;;11.87;7.53;;;4.50;96.30;;;;;;5060025;28;20414;-75
2022/02/10 20:05:45;;;;;;;10.20;7.73;;;4.40;96.30;;;;;;5053410;28;20390;-76
2022/02/10 20:08:15;;;;;;;9.90;7.90;;;4.40;96.30;;;;;;5058582;28;20479;-75
2022/02/10 20:10:41;;;;;;;11.30;8.40;;;4.40;96.30;;;;;;5073484;28;20524;-75
2022/02/10 20:13:07;;;;;;;16.50;8.60;;;4.30;96.30;;;;;;5073554;28;20409;-75
2022/02/10 20:15:36;;;;;;;11.73;7.43;;;4.30;96.30;;;;;;5073109;28;20437;-77
2022/02/10 20:18:04;;;;;;;11.93;8.83;;;4.30;96.30;;;;;;5073295;28;20641;-76
2022/02/10 20:20:30;;;;;;;11.30;7.50;;;4.30;96.30;;;;;;5073329;28;20409;-78
2022/02/10 20:22:56;;;;;;;11.20;7.80;;;4.30;96.30;;;;;;5055612;28;20904;-76
2022/02/10 20:25:22;;;;;;;10.90;8.00;;;4.30;96.30;;;;;;5073405;28;20178;-79
2022/02/10 20:27:48;;;;;;;11.27;7.50;;;4.30;96.30;;;;;;5047078;28;20421;-77
2022/02/10 20:30:14;;;;;;;9.70;7.30;;;4.30;96.30;;;;;;5073065;28;20416;-77
2022/02/10 20:32:39;;;;;;;9.33;7.00;;;;;;;;;;5055575;28;20225;-78
2022/02/10 20:35:07;;;;;;;9.07;6.70;;;4.30;96.30;;;;;;5063917;28;20195;-78
2022/02/10 20:37:33;;;;;;;11.50;7.17;;;4.30;96.30;;;;;;5051490;28;20281;-78
2022/02/10 20:40:01;;;;;;;9.17;6.80;;;4.30;96.30;;;;;;5072907;28;20516;-77
2022/02/10 20:42:28;;;;;;;10.57;7.07;;;4.30;96.30;;;;;;5072548;28;20278;-78
2022/02/10 20:44:55;;;;;;;7.27;6.27;;;4.30;96.30;;;;;;5068306;28;20935;-76
2022/02/10 20:47:23;;;;;;;8.00;6.70;;;4.30;96.30;;;;;;5055817;28;20410;-77
2022/02/10 20:49:49;;;;;;;9.03;6.73;;;4.20;96.30;;;;;;5065131;28;20948;-77
2022/02/10 20:52:15;;;;;;;7.57;6.63;;;4.20;96.30;;;;;;5072525;28;20468;-76
2022/02/10 20:54:42;;;;;;;9.90;6.70;;;4.20;96.30;;;;;;5054320;28;20198;-75
2022/02/10 20:57:08;;;;;;;12.40;8.10;;;4.20;96.30;;;;;;5072618;28;20405;-77
2022/02/10 20:59:38;;;;;;;9.87;7.53;;;4.20;96.30;;;;;;5061175;28;20773;-77
2022/02/10 21:02:10;;;;;;;11.60;7.90;;;4.20;96.30;;;;;;5052006;28;20430;-78
2022/02/10 21:04:50;;;;;;;12.00;7.50;;;4.20;96.30;;;;;;5070952;28;20405;-77
2022/02/10 21:07:27;;;;;;;9.30;7.50;;;4.10;96.30;;;;;;5070941;28;20478;-76
2022/02/10 21:09:58;;;;;;;8.97;7.00;;;4.10;96.30;;;;;;5072059;28;20472;-76
2022/02/10 21:12:28;;;;;;;11.20;7.80;;;4.10;96.30;;;;;;5072210;28;20528;-78
2022/02/10 21:14:54;;;;;;;10.20;7.80;;;4.10;96.30;;;;;;5068730;28;20457;-78
2022/02/10 21:17:24;;;;;;;9.20;7.33;;;4.10;96.30;;;;;;5034279;28;20555;-77
2022/02/10 21:19:50;;;;;;;9.57;8.43;;;4.10;96.30;;;;;;5034463;28;20243;-75
2022/02/10 21:22:19;;;;;;;10.03;7.20;;;;;;;;;;5036240;28;20575;-78
2022/02/10 21:24:56;;;;;;;11.10;7.33;;;4.00;96.30;;;;;;5070486;28;20265;-78
2022/02/10 21:27:32;;;;;;;8.80;6.60;;;4.00;96.30;;;;;;5072244;28;20389;-77
2022/02/10 21:30:03;;;;;;;10.57;7.33;;;4.00;96.30;;;;;;5054218;28;20405;-78
2022/02/10 21:32:32;;;;;;;10.37;7.27;;;4.00;96.30;;;;;;5054087;28;20808;-77
2022/02/10 21:35:20;;;;;;;8.00;7.17;;;4.00;96.30;;;;;;5071970;28;20449;-77
2022/02/10 21:37:55;;;;;;;8.67;7.60;;;4.00;96.30;;;;;;5071995;28;20421;-77
2022/02/10 21:47:20;;;;;;;8.57;6.40;;;4.00;96.30;;;;;;5071857;28;20842;-78
2022/02/10 21:54:34;;;;;;;11.37;7.90;;;4.00;96.30;;;;;;5076303;28;20515;-76
2022/02/10 22:03:15;;;;;;;9.63;7.47;;;4.00;96.30;;;;;;5076181;28;20557;-76
2022/02/10 22:08:26;;;;;;;43.63;28.07;;;4.00;96.30;;;;;;5076153;28;20408;-78
2022/02/10 22:10:48;;;;;;;40.93;24.67;;;4.10;96.30;;;;;;5075555;28;20507;-76
2022/02/10 22:18:51;;;;;;;13.87;8.80;;;4.10;96.30;;;;;;5075710;28;20867;-77
2022/02/10 22:21:28;;;;;;;6.93;5.87;;;4.00;96.30;;;;;;5075451;28;20818;-76
2022/02/10 22:23:53;;;;;;;8.97;6.80;;;4.00;96.30;;;;;;5075560;28;20855;-76
2022/02/10 22:26:25;;;;;;;8.13;6.53;;;4.00;96.30;;;;;;5075255;28;20408;-77
2022/02/10 22:29:12;;;;;;;8.20;6.70;;;4.10;96.30;;;;;;5067588;28;20167;-76
2022/02/10 22:34:33;;;;;;;16.37;11.83;;;4.10;96.30;;;;;;5075000;28;20505;-76
2022/02/10 22:37:01;;;;;;;12.27;9.27;;;4.10;96.30;;;;;;5051742;28;20418;-77
2022/02/10 22:39:29;;;;;;;50.07;29.80;;;4.10;96.30;;;;;;5050939;28;20524;-78
2022/02/10 22:41:54;;;;;;;12.07;9.23;;;4.10;96.30;;;;;;5055161;28;20495;-78
2022/02/10 22:44:20;;;;;;;9.63;7.40;;;4.00;96.30;;;;;;5049870;28;20517;-77
2022/02/10 22:46:46;;;;;;;6.83;6.13;;;4.00;96.30;;;;;;5054931;28;20174;-78
2022/02/10 22:49:13;;;;;;;10.07;6.43;;;4.00;96.30;;;;;;5054950;28;20182;-77
2022/02/10 22:51:39;;;;;;;7.33;6.53;;;4.00;96.30;;;;;;5054836;28;20432;-78
2022/02/10 22:54:06;;;;;;;12.60;8.60;;;4.00;96.30;;;;;;5054875;28;20533;-77
2022/02/10 22:56:32;;;;;;;10.00;7.20;;;4.00;96.30;;;;;;5054728;28;20463;-77
2022/02/10 22:59:06;;;;;;;9.13;7.30;;;4.00;96.30;;;;;;5071587;28;20425;-77
2022/02/10 23:01:32;;;;;;;8.37;6.80;;;4.00;96.30;;;;;;5073793;28;20473;-76
2022/02/10 23:03:58;;;;;;;8.17;6.40;;;4.10;96.30;;;;;;5074687;28;20401;-76
2022/02/10 23:06:24;;;;;;;9.60;7.20;;;4.10;96.30;;;;;;5074046;28;20420;-77
2022/02/10 23:08:50;;;;;;;7.43;6.47;;;4.00;96.30;;;;;;5072598;28;20412;-76
2022/02/10 23:11:24;;;;;;;10.30;6.63;;;4.00;96.30;;;;;;5054442;28;20430;-76
2022/02/10 23:13:50;;;;;;;6.80;5.83;;;4.00;96.30;;;;;;5054690;28;20171;-76
2022/02/10 23:16:16;;;;;;;7.27;6.37;;;;;;;;;;5048392;28;20512;-76
2022/02/10 23:18:44;;;;;;;16.83;7.07;;;3.90;96.30;;;;;;5053079;28;20218;-76
2022/02/10 23:21:14;;;;;;;10.60;7.20;;;4.00;96.30;;;;;;5054347;28;20234;-76
2022/02/10 23:23:43;;;;;;;8.13;7.10;;;4.00;96.30;;;;;;5054933;28;20990;-77
2022/02/10 23:26:09;;;;;;;7.67;6.73;;;3.90;96.30;;;;;;5074084;28;20420;-75
2022/02/10 23:28:38;;;;;;;7.87;7.07;;;3.90;96.30;;;;;;5074298;28;20414;-76
2022/02/10 23:31:06;;;;;;;13.00;6.67;;;3.90;96.30;;;;;;5074161;28;20203;-76
2022/02/10 23:33:35;;;;;;;9.40;7.37;;;3.90;96.30;;;;;;5083063;28;20432;-77
2022/02/10 23:38:41;;;;;;;9.67;6.83;;;3.90;96.30;;;;;;5086944;28;20441;-77
2022/02/10 23:43:51;;;;;;;7.97;7.17;;;3.80;96.30;;;;;;5074214;28;20930;-76
2022/02/10 23:46:19;;;;;;;7.63;6.57;;;3.80;96.30;;;;;;5073848;28;20491;-78
2022/02/10 23:48:45;;;;;;;7.87;6.50;;;3.80;96.30;;;;;;5074040;28;20496;-76
2022/02/10 23:51:10;;;;;;;9.53;7.17;;;3.80;96.30;;;;;;5056085;28;20445;-76
2022/02/10 23:53:37;;;;;;;9.70;6.67;;;3.80;96.30;;;;;;5056069;28;20424;-77
2022/02/10 23:56:07;;;;;;;8.87;7.03;;;3.80;96.30;;;;;;5055780;28;20224;-76
2022/02/10 23:58:58;;;;;;;6.10;5.50;;;3.80;96.30;;;;;;5055883;28;20794;-76
